< < Back
Terminal Aerodrome Forecast


Current Version              Previous Versions:   1  2  3  4  5  6  7  8  9  

Terminal Aerodrome Forecast

084
FTUS42 KGSP 210500
TAFGSP
TAF
KGSP 210520Z 2106/2206 31004KT P6SM BKN250
     FM211300 35003KT P6SM FEW060 SCT250
     FM211700 30003KT P6SM FEW060 SCT250=

Latest METAR

365
SAUS70 KWBC 220400 RRG
MTRGSP
METAR KGSP 220353Z AUTO 22003KT 10SM CLR 26/22 A3009 RMK AO2 SLP175
T02560222


USA.gov is the U.S. government's official web portal to all federal, state and local government web resources and services.